Time;durP1;ratioP1;P1;durP2;ratioP2;P2;SDS_P1;SDS_P2;PMS_P1;PMS_P2;Temp;Humidity;BMP_temperature;BMP_pressure;BME280_temperature;BME280_humidity;BME280_pressure;Samples;Min_cycle;Max_cycle;Signal;HPM_P1;HPM_P2
2023/08/11 00:01:18;;;;;;;4.45;2.70;;;22.80;89.70;;;;;;5024696;28;20041;-61
2023/08/11 00:03:44;;;;;;;4.97;2.65;;;23.00;89.70;;;;;;5032214;28;20058;-62
2023/08/11 00:06:09;;;;;;;5.82;2.40;;;23.00;90.00;;;;;;5032255;28;20053;-68
2023/08/11 00:08:39;;;;;;;5.68;2.63;;;23.00;89.70;;;;;;5030417;28;20179;-63
2023/08/11 00:11:06;;;;;;;4.53;2.40;;;22.80;88.80;;;;;;5029230;28;20081;-62
2023/08/11 00:13:32;;;;;;;5.47;2.47;;;22.90;90.00;;;;;;5011263;28;20045;-61
2023/08/11 00:15:58;;;;;;;5.60;2.90;;;22.90;91.00;;;;;;5022215;28;20191;-61
2023/08/11 00:18:24;;;;;;;5.40;2.70;;;22.60;89.70;;;;;;5018619;28;20046;-61
2023/08/11 00:20:49;;;;;;;5.07;2.60;;;22.90;91.30;;;;;;5013772;28;20076;-68
2023/08/11 00:23:15;;;;;;;6.00;2.58;;;23.00;90.00;;;;;;5020818;28;20038;-68
2023/08/11 00:25:41;;;;;;;5.13;2.63;;;23.00;89.90;;;;;;5028998;28;20038;-67
2023/08/11 00:28:06;;;;;;;4.22;2.58;;;22.80;91.00;;;;;;5027343;28;20089;-69
2023/08/11 00:30:32;;;;;;;5.60;2.60;;;22.90;90.00;;;;;;5011257;28;20052;-67
2023/08/11 00:32:58;;;;;;;5.43;2.33;;;22.80;91.10;;;;;;5020807;28;20061;-62
2023/08/11 00:35:24;;;;;;;4.20;2.38;;;22.90;91.40;;;;;;5015144;28;20492;-67
2023/08/11 00:37:50;;;;;;;4.18;2.50;;;22.90;91.20;;;;;;5028543;28;20454;-68
2023/08/11 00:40:16;;;;;;;4.95;2.63;;;22.80;90.00;;;;;;5041006;28;20096;-65
2023/08/11 00:42:42;;;;;;;5.43;2.67;;;23.00;91.20;;;;;;5062133;28;20136;-68
2023/08/11 00:45:09;;;;;;;4.75;2.58;;;22.90;91.20;;;;;;5029663;28;20045;-65
2023/08/11 00:47:35;;;;;;;4.38;2.60;;;22.90;91.40;;;;;;5065470;28;20042;-67
2023/08/11 00:50:02;;;;;;;4.68;2.42;;;22.70;89.90;;;;;;5010657;28;20218;-61
2023/08/11 00:52:28;;;;;;;5.28;2.72;;;23.00;90.00;;;;;;5025214;28;20396;-67
2023/08/11 00:54:55;;;;;;;4.28;2.55;;;23.10;90.10;;;;;;5014659;28;20045;-61
2023/08/11 00:57:21;;;;;;;3.78;2.28;;;22.80;91.10;;;;;;5049897;28;20120;-61
2023/08/11 00:59:46;;;;;;;4.57;2.15;;;22.90;90.00;;;;;;5034226;28;20180;-61
2023/08/11 01:02:13;;;;;;;4.70;2.40;;;22.80;89.90;;;;;;5032496;28;20391;-61
2023/08/11 01:04:39;;;;;;;5.80;2.60;;;22.80;90.00;;;;;;5034126;28;20046;-61
2023/08/11 01:07:20;;;;;;;5.03;2.28;;;22.60;89.80;;;;;;5033901;28;20056;-61
2023/08/11 01:10:16;;;;;;;4.00;2.33;;;22.90;90.30;;;;;;5000321;28;20060;-61
2023/08/11 01:12:55;;;;;;;4.15;2.20;;;22.90;90.20;;;;;;5021197;28;20061;-61
2023/08/11 01:15:24;;;;;;;4.85;2.63;;;22.80;91.50;;;;;;5017474;28;20124;-61
2023/08/11 01:17:50;;;;;;;6.55;2.50;;;22.90;90.10;;;;;;5017315;28;20049;-65
2023/08/11 01:20:16;;;;;;;4.45;2.42;;;23.00;90.10;;;;;;5050644;28;20079;-61
2023/08/11 01:22:46;;;;;;;5.40;2.53;;;22.80;91.40;;;;;;5030836;28;20208;-61
2023/08/11 01:25:12;;;;;;;5.22;2.50;;;22.80;90.10;;;;;;5040964;28;20436;-66
2023/08/11 01:27:54;;;;;;;5.43;2.40;;;22.70;91.30;;;;;;5032155;28;20048;-64
2023/08/11 01:30:20;;;;;;;3.75;2.38;;;22.80;90.20;;;;;;5033990;28;20117;-64
2023/08/11 01:32:46;;;;;;;4.97;2.42;;;22.70;91.30;;;;;;5030652;28;20117;-64
2023/08/11 01:35:12;;;;;;;5.13;2.53;;;22.80;90.00;;;;;;5029672;28;20153;-67
2023/08/11 01:37:37;;;;;;;4.93;2.53;;;22.70;91.10;;;;;;5017152;28;20411;-67
2023/08/11 01:40:10;;;;;;;6.35;3.00;;;22.90;90.00;;;;;;5029344;28;20099;-66
2023/08/11 01:42:39;;;;;;;4.80;2.70;;;22.70;89.70;;;;;;5027090;28;20516;-68
2023/08/11 01:45:10;;;;;;;4.82;2.28;;;22.60;90.10;;;;;;5032511;28;20440;-68
2023/08/11 01:47:37;;;;;;;4.93;2.53;;;22.90;88.90;;;;;;5014631;28;20119;-69
2023/08/11 01:50:03;;;;;;;4.60;2.80;;;22.90;90.20;;;;;;5048831;28;20056;-67
2023/08/11 01:52:36;;;;;;;5.30;2.70;;;22.70;91.20;;;;;;5013937;28;20042;-64
2023/08/11 01:55:01;;;;;;;4.53;2.88;;;22.70;91.60;;;;;;5032411;28;20057;-61
2023/08/11 01:57:27;;;;;;;4.50;2.60;;;22.50;91.30;;;;;;5020432;28;20391;-61
2023/08/11 01:59:53;;;;;;;4.95;2.70;;;22.70;91.40;;;;;;5026479;28;20495;-64
2023/08/11 02:02:19;;;;;;;6.95;2.97;;;22.70;91.10;;;;;;5034703;28;20111;-65
2023/08/11 02:04:45;;;;;;;5.93;2.75;;;22.60;90.10;;;;;;5031025;28;20384;-61
2023/08/11 02:07:11;;;;;;;4.45;2.30;;;22.60;90.10;;;;;;5034133;28;20064;-61
2023/08/11 02:09:37;;;;;;;5.05;2.70;;;22.70;91.20;;;;;;5030038;28;20459;-64
2023/08/11 02:12:03;;;;;;;4.47;2.78;;;22.60;91.20;;;;;;5033879;28;20124;-62
2023/08/11 02:14:29;;;;;;;4.50;2.40;;;22.70;90.00;;;;;;5032320;28;20053;-62
2023/08/11 02:16:55;;;;;;;5.13;3.03;;;22.60;91.30;;;;;;5023259;28;20048;-62
2023/08/11 02:19:21;;;;;;;5.07;2.90;;;22.80;90.00;;;;;;5025066;28;20053;-61
2023/08/11 02:21:46;;;;;;;6.40;2.70;;;22.60;91.20;;;;;;5033934;28;20513;-62
2023/08/11 02:24:13;;;;;;;5.18;2.75;;;22.70;90.20;;;;;;5033242;28;20045;-62
2023/08/11 02:26:39;;;;;;;5.30;2.90;;;22.50;90.10;;;;;;5027961;28;20076;-65
2023/08/11 02:29:04;;;;;;;4.70;2.88;;;22.60;91.20;;;;;;5061912;28;20080;-64
2023/08/11 02:31:33;;;;;;;5.55;3.20;;;22.70;91.70;;;;;;5022937;28;20049;-64
2023/08/11 02:33:59;;;;;;;4.15;2.85;;;22.70;89.50;;;;;;5022220;28;20052;-64
2023/08/11 02:36:25;;;;;;;4.95;2.95;;;22.70;90.20;;;;;;5026381;28;20049;-65
2023/08/11 02:38:51;;;;;;;5.97;3.25;;;22.40;90.10;;;;;;5063168;28;20075;-62
2023/08/11 02:41:18;;;;;;;5.28;2.92;;;22.90;90.30;;;;;;5028327;28;20056;-65
2023/08/11 02:43:44;;;;;;;4.90;2.90;;;;;;;;;;5030602;28;20211;-68
2023/08/11 02:46:10;;;;;;;5.13;3.13;;;22.60;88.70;;;;;;5025092;28;20103;-67
2023/08/11 02:48:38;;;;;;;7.40;2.90;;;22.70;90.30;;;;;;5029484;28;20049;-71
2023/08/11 02:51:04;;;;;;;5.45;2.85;;;22.70;90.30;;;;;;5027473;28;20048;-68
2023/08/11 02:53:30;;;;;;;5.85;3.00;;;22.50;91.50;;;;;;5041171;28;20107;-69
2023/08/11 02:55:55;;;;;;;5.75;3.42;;;22.60;90.30;;;;;;5018817;28;20490;-65
2023/08/11 02:58:21;;;;;;;6.22;3.17;;;22.50;91.30;;;;;;5032062;28;20045;-71
2023/08/11 03:00:50;;;;;;;5.85;3.03;;;22.40;91.20;;;;;;5028649;28;20099;-68
2023/08/11 03:03:16;;;;;;;5.00;2.92;;;22.50;91.60;;;;;;5030999;28;20042;-69
2023/08/11 03:05:44;;;;;;;5.85;3.38;;;22.20;91.60;;;;;;5023705;28;20041;-71
2023/08/11 03:08:10;;;;;;;5.75;3.40;;;22.40;90.40;;;;;;5014628;28;20058;-70
2023/08/11 03:10:36;;;;;;;7.93;3.70;;;22.70;90.10;;;;;;5015637;28;20122;-68
2023/08/11 03:13:02;;;;;;;5.40;3.50;;;22.50;91.50;;;;;;5027212;28;20431;-67
2023/08/11 03:15:28;;;;;;;5.78;3.28;;;22.40;90.10;;;;;;5018962;28;20437;-71
2023/08/11 03:17:56;;;;;;;5.88;3.30;;;22.60;90.20;;;;;;5023267;28;20415;-68
2023/08/11 03:20:23;;;;;;;5.35;3.50;;;22.40;90.30;;;;;;5018740;28;20057;-67
2023/08/11 03:22:48;;;;;;;5.57;3.47;;;22.40;91.30;;;;;;5034318;28;20069;-67
2023/08/11 03:25:14;;;;;;;6.93;3.75;;;22.40;91.30;;;;;;5028642;28;20526;-69
2023/08/11 03:27:42;;;;;;;4.68;2.95;;;22.40;90.20;;;;;;5030255;28;20380;-67
2023/08/11 03:30:09;;;;;;;6.10;3.80;;;22.50;90.30;;;;;;5052244;28;20076;-68
2023/08/11 03:32:34;;;;;;;5.38;3.28;;;22.30;90.70;;;;;;5016590;28;20049;-65
2023/08/11 03:35:00;;;;;;;5.65;3.15;;;22.60;91.30;;;;;;5033095;28;20053;-61
2023/08/11 03:37:26;;;;;;;5.13;3.67;;;22.40;91.40;;;;;;5025378;28;20140;-65
2023/08/11 03:39:52;;;;;;;5.25;3.30;;;22.60;90.20;;;;;;5029284;28;20051;-70
2023/08/11 03:42:17;;;;;;;5.40;3.05;;;22.40;91.50;;;;;;5023998;28;20099;-65
2023/08/11 03:44:43;;;;;;;5.82;3.42;;;22.60;91.40;;;;;;5019901;28;20048;-65
2023/08/11 03:47:09;;;;;;;6.07;4.00;;;22.40;91.70;;;;;;5030750;28;20522;-65
2023/08/11 03:49:35;;;;;;;6.10;3.78;;;22.30;91.40;;;;;;5027955;28;20495;-71
2023/08/11 03:52:01;;;;;;;5.60;3.72;;;;;;;;;;5026862;28;20103;-66
2023/08/11 03:54:27;;;;;;;5.38;3.40;;;22.30;91.30;;;;;;5026134;28;20103;-69
2023/08/11 03:56:53;;;;;;;6.28;4.10;;;22.40;91.30;;;;;;5030917;28;20403;-68
2023/08/11 03:59:18;;;;;;;5.90;3.47;;;22.20;91.60;;;;;;5022662;28;20042;-69
2023/08/11 04:01:44;;;;;;;6.60;3.25;;;22.20;90.10;;;;;;5030972;28;20500;-67
2023/08/11 04:04:10;;;;;;;5.10;3.40;;;22.40;91.60;;;;;;5017749;28;20057;-66
2023/08/11 04:06:36;;;;;;;5.32;3.40;;;22.50;91.30;;;;;;5025662;28;20483;-72
2023/08/11 04:09:02;;;;;;;5.90;3.70;;;22.50;90.20;;;;;;5063521;28;20053;-70
2023/08/11 04:11:27;;;;;;;5.63;3.95;;;22.40;91.40;;;;;;5028092;28;20045;-64
2023/08/11 04:13:53;;;;;;;6.57;3.40;;;22.30;91.20;;;;;;5026644;28;20064;-70
2023/08/11 04:16:20;;;;;;;5.22;3.67;;;22.40;91.40;;;;;;5024807;28;20049;-65
2023/08/11 04:18:45;;;;;;;5.15;3.80;;;22.40;91.30;;;;;;5028422;28;20049;-67
2023/08/11 04:21:11;;;;;;;4.90;3.58;;;22.50;91.30;;;;;;5030418;28;20053;-66
2023/08/11 04:23:37;;;;;;;5.70;3.60;;;22.50;90.20;;;;;;5032948;28;20399;-68
2023/08/11 04:26:05;;;;;;;5.28;3.65;;;22.40;91.20;;;;;;5033428;28;20052;-65
2023/08/11 04:28:31;;;;;;;4.90;3.40;;;22.50;90.70;;;;;;5034911;28;20107;-66
2023/08/11 04:30:57;;;;;;;5.28;3.60;;;22.10;90.20;;;;;;5033679;28;20045;-66
2023/08/11 04:33:25;;;;;;;5.05;3.38;;;22.40;90.20;;;;;;5022191;28;20038;-64
2023/08/11 04:35:51;;;;;;;5.97;3.65;;;22.40;91.30;;;;;;5000363;28;20515;-66
2023/08/11 04:38:17;;;;;;;5.20;3.60;;;;;;;;;;5032402;28;20136;-68
2023/08/11 04:40:43;;;;;;;6.88;3.78;;;22.40;91.20;;;;;;5055888;28;20045;-66
2023/08/11 04:43:09;;;;;;;7.05;3.95;;;22.50;91.30;;;;;;5028401;28;20463;-68
2023/08/11 04:45:34;;;;;;;5.40;3.50;;;22.40;91.30;;;;;;5022282;28;20376;-67
2023/08/11 04:48:00;;;;;;;5.93;4.05;;;22.40;91.50;;;;;;5028954;28;20423;-67
2023/08/11 04:50:26;;;;;;;5.72;3.55;;;22.60;91.20;;;;;;5029149;28;20689;-66
2023/08/11 04:52:52;;;;;;;6.13;3.63;;;22.60;90.40;;;;;;5033874;28;20052;-65
2023/08/11 04:55:18;;;;;;;5.97;3.50;;;22.50;90.10;;;;;;5027227;28;20033;-69
2023/08/11 04:57:43;;;;;;;4.70;3.40;;;22.40;91.00;;;;;;5033282;28;20383;-65
2023/08/11 05:00:16;;;;;;;5.43;3.30;;;22.50;91.20;;;;;;5032841;28;20049;-66
2023/08/11 05:02:43;;;;;;;6.05;3.30;;;22.60;89.40;;;;;;5034203;28;20507;-70
2023/08/11 05:05:09;;;;;;;6.15;3.25;;;22.80;91.00;;;;;;5031290;28;20056;-64
2023/08/11 05:07:36;;;;;;;4.70;3.20;;;22.90;90.00;;;;;;5034076;28;20111;-70
2023/08/11 05:10:02;;;;;;;5.35;3.30;;;22.80;91.00;;;;;;5030507;28;20062;-69
2023/08/11 05:12:28;;;;;;;4.85;2.92;;;22.90;89.90;;;;;;5030781;28;20045;-65
2023/08/11 05:14:54;;;;;;;8.20;3.30;;;22.80;89.70;;;;;;5028005;28;20085;-67
2023/08/11 05:17:20;;;;;;;5.10;2.90;;;22.90;89.30;;;;;;5028053;28;20455;-63
2023/08/11 05:19:45;;;;;;;4.50;2.92;;;23.10;89.20;;;;;;5021486;28;20034;-64
2023/08/11 05:22:12;;;;;;;5.68;2.90;;;23.20;90.80;;;;;;5024955;28;20084;-70
2023/08/11 05:24:38;;;;;;;4.93;3.00;;;23.10;89.00;;;;;;5027417;28;20073;-67
2023/08/11 05:27:05;;;;;;;4.72;2.83;;;23.10;88.80;;;;;;5035021;28;20526;-64
2023/08/11 05:29:31;;;;;;;6.32;2.97;;;23.30;88.50;;;;;;5035232;28;20049;-66
2023/08/11 05:31:57;;;;;;;5.30;2.92;;;23.60;90.40;;;;;;5034857;28;20050;-66
2023/08/11 05:34:23;;;;;;;5.80;2.80;;;23.70;88.30;;;;;;5008957;28;20125;-69
2023/08/11 05:36:49;;;;;;;5.13;2.60;;;23.60;88.10;;;;;;5029904;28;20083;-64
2023/08/11 05:39:15;;;;;;;4.60;3.03;;;23.70;87.90;;;;;;5034823;28;20468;-64
2023/08/11 05:41:41;;;;;;;4.72;2.90;;;23.80;87.70;;;;;;5017439;28;20145;-66
2023/08/11 05:44:07;;;;;;;6.07;3.00;;;23.80;87.60;;;;;;5020187;28;20055;-64
2023/08/11 05:46:32;;;;;;;5.03;2.90;;;24.10;87.50;;;;;;5026694;28;20483;-68
2023/08/11 05:48:58;;;;;;;4.47;2.88;;;23.80;89.90;;;;;;5031224;28;20567;-66
2023/08/11 05:51:24;;;;;;;6.53;3.38;;;23.90;86.80;;;;;;5031493;28;20056;-64
2023/08/11 05:53:50;;;;;;;5.82;3.08;;;24.10;86.90;;;;;;5032915;28;20045;-64
2023/08/11 05:56:15;;;;;;;4.90;2.75;;;24.00;86.60;;;;;;5028205;28;20041;-62
2023/08/11 05:58:41;;;;;;;5.05;3.05;;;24.30;86.70;;;;;;5030132;28;20096;-64
2023/08/11 06:01:07;;;;;;;5.63;2.92;;;24.40;86.50;;;;;;5031876;28;20171;-63
2023/08/11 06:03:33;;;;;;;5.00;2.80;;;24.00;86.00;;;;;;5018653;28;20121;-65
2023/08/11 06:06:00;;;;;;;6.55;2.85;;;24.20;85.70;;;;;;5028512;28;20072;-67
2023/08/11 06:08:27;;;;;;;5.80;2.80;;;24.30;86.30;;;;;;5031893;28;20132;-65
2023/08/11 06:10:54;;;;;;;4.57;2.85;;;24.40;86.10;;;;;;5013713;28;20119;-68
2023/08/11 06:13:24;;;;;;;3.55;2.30;;;24.50;85.90;;;;;;5026172;28;20455;-66
2023/08/11 06:15:50;;;;;;;5.18;2.83;;;24.70;85.90;;;;;;5024083;28;20049;-65
2023/08/11 06:18:17;;;;;;;4.97;2.70;;;24.60;85.30;;;;;;5030304;28;20049;-62
2023/08/11 06:20:43;;;;;;;4.80;2.80;;;24.80;85.50;;;;;;5031333;28;20099;-62
2023/08/11 06:23:09;;;;;;;3.67;2.60;;;24.40;85.00;;;;;;5030007;28;20050;-63
2023/08/11 06:25:36;;;;;;;4.40;2.63;;;24.60;85.00;;;;;;5028896;28;20427;-63
2023/08/11 06:28:02;;;;;;;4.97;2.50;;;24.80;85.10;;;;;;5025906;28;20459;-63
2023/08/11 06:30:30;;;;;;;4.53;2.70;;;25.00;84.50;;;;;;5019978;28;20446;-63
2023/08/11 06:32:56;;;;;;;4.47;2.50;;;25.10;84.80;;;;;;5027888;28;20043;-70
2023/08/11 06:35:22;;;;;;;4.75;2.63;;;25.00;84.80;;;;;;5033085;28;20056;-70
2023/08/11 06:37:48;;;;;;;4.10;2.47;;;25.10;84.40;;;;;;5029421;28;20049;-74
2023/08/11 06:40:13;;;;;;;7.65;2.95;;;24.90;84.80;;;;;;5026548;28;20048;-73
2023/08/11 06:42:39;;;;;;;5.18;2.67;;;24.80;84.60;;;;;;5023781;28;20051;-69
2023/08/11 06:45:05;;;;;;;6.57;2.60;;;25.00;84.10;;;;;;5027061;28;20052;-73
2023/08/11 06:47:33;;;;;;;4.45;2.35;;;25.20;83.80;;;;;;5028970;28;20111;-66
2023/08/11 06:49:59;;;;;;;4.30;2.55;;;25.10;84.10;;;;;;5024803;28;20447;-70
2023/08/11 06:52:25;;;;;;;4.30;2.40;;;25.30;83.90;;;;;;5023019;28;20122;-71
2023/08/11 06:54:51;;;;;;;4.97;2.78;;;25.40;83.90;;;;;;5029631;28;20052;-71
2023/08/11 06:57:20;;;;;;;5.25;2.78;;;25.40;83.60;;;;;;5029308;28;20045;-66
2023/08/11 06:59:47;;;;;;;4.35;2.30;;;25.40;83.70;;;;;;5030381;28;20033;-71
2023/08/11 07:02:13;;;;;;;4.53;2.50;;;25.20;83.10;;;;;;5029369;28;20128;-68
2023/08/11 07:04:39;;;;;;;4.63;2.45;;;25.60;83.40;;;;;;5062587;28;20178;-70
2023/08/11 07:07:05;;;;;;;4.70;2.55;;;25.30;83.10;;;;;;5012808;28;20073;-64
2023/08/11 07:09:32;;;;;;;3.75;2.35;;;25.60;83.50;;;;;;5024967;28;20106;-71
2023/08/11 07:11:58;;;;;;;4.18;2.42;;;25.60;83.40;;;;;;5011114;28;20068;-71
2023/08/11 07:14:24;;;;;;;4.53;2.47;;;25.70;83.00;;;;;;5031693;28;20037;-71
2023/08/11 07:16:49;;;;;;;4.13;2.50;;;25.60;82.80;;;;;;5020598;28;20491;-71
2023/08/11 07:19:15;;;;;;;4.00;2.30;;;25.50;82.60;;;;;;5027414;28;20455;-62
2023/08/11 07:21:41;;;;;;;6.35;2.38;;;25.70;82.70;;;;;;5030270;28;20048;-62
2023/08/11 07:24:07;;;;;;;5.25;2.63;;;25.50;82.40;;;;;;5029849;28;20041;-72
2023/08/11 07:26:33;;;;;;;5.65;2.47;;;25.70;82.60;;;;;;5032810;28;20488;-74
2023/08/11 07:28:59;;;;;;;4.40;2.53;;;25.90;82.40;;;;;;5028172;28;20046;-62
2023/08/11 07:31:24;;;;;;;5.78;2.40;;;25.70;82.10;;;;;;5031559;28;20093;-65
2023/08/11 07:33:50;;;;;;;6.35;2.72;;;25.60;82.10;;;;;;5027023;28;20050;-75
2023/08/11 07:36:16;;;;;;;4.95;2.55;;;25.70;81.80;;;;;;5030399;28;20044;-72
2023/08/11 07:38:42;;;;;;;5.20;2.72;;;26.00;81.90;;;;;;5027021;28;20033;-68
2023/08/11 07:41:08;;;;;;;5.53;2.72;;;25.80;82.60;;;;;;5030080;28;20045;-72
2023/08/11 07:43:34;;;;;;;6.20;3.33;;;26.10;82.20;;;;;;5026560;28;20072;-66
2023/08/11 07:45:59;;;;;;;7.35;3.53;;;26.00;81.70;;;;;;5030566;28;20545;-69
2023/08/11 07:48:26;;;;;;;6.57;3.25;;;26.10;81.40;;;;;;5028617;28;20038;-71
2023/08/11 07:50:51;;;;;;;7.32;3.65;;;26.10;81.00;;;;;;5028050;28;20049;-79
2023/08/11 07:53:17;;;;;;;7.10;3.50;;;25.90;80.90;;;;;;5030746;28;20041;-72
2023/08/11 07:55:43;;;;;;;7.22;3.63;;;26.20;80.80;;;;;;5025198;28;20049;-76
2023/08/11 07:58:09;;;;;;;8.70;3.42;;;25.90;80.60;;;;;;5020633;28;20076;-73
2023/08/11 08:00:34;;;;;;;5.32;3.20;;;26.00;80.50;;;;;;5026561;28;20518;-70
2023/08/11 08:03:00;;;;;;;7.25;3.53;;;26.10;80.40;;;;;;5031246;28;20041;-70
2023/08/11 08:05:26;;;;;;;10.23;3.78;;;25.70;79.90;;;;;;5028438;28;20041;-68
2023/08/11 08:07:52;;;;;;;6.47;3.10;;;25.70;80.00;;;;;;5023862;28;20054;-73
2023/08/11 08:10:20;;;;;;;9.40;3.30;;;25.80;79.80;;;;;;5022157;28;20077;-75
2023/08/11 08:12:45;;;;;;;7.75;3.10;;;26.00;80.10;;;;;;5025374;28;20049;-64
2023/08/11 08:15:12;;;;;;;5.88;3.05;;;25.90;79.90;;;;;;5015725;28;20156;-62
2023/08/11 08:17:38;;;;;;;6.28;3.47;;;26.00;80.20;;;;;;5028423;28;20088;-68
2023/08/11 08:20:05;;;;;;;5.53;3.45;;;25.90;79.90;;;;;;5016196;28;20167;-76
2023/08/11 08:22:32;;;;;;;8.98;4.05;;;26.10;79.60;;;;;;5043501;28;20053;-76
2023/08/11 08:24:58;;;;;;;6.70;3.80;;;26.00;79.80;;;;;;5047773;28;20111;-76
2023/08/11 08:27:24;;;;;;;6.15;3.75;;;26.00;79.50;;;;;;5026894;28;20049;-65
2023/08/11 08:29:51;;;;;;;8.30;4.15;;;26.00;79.30;;;;;;5014197;28;20049;-77
2023/08/11 08:32:17;;;;;;;6.00;3.60;;;25.80;79.30;;;;;;5024426;28;20387;-77
2023/08/11 08:34:43;;;;;;;8.20;3.78;;;25.90;79.10;;;;;;5044100;28;20040;-73
2023/08/11 08:37:09;;;;;;;7.28;3.83;;;25.80;79.00;;;;;;5028720;28;20050;-62
2023/08/11 08:39:35;;;;;;;6.78;4.00;;;26.10;79.30;;;;;;5058809;28;20121;-71
2023/08/11 08:42:01;;;;;;;9.68;4.03;;;25.80;79.30;;;;;;5022821;28;20164;-76
2023/08/11 08:44:27;;;;;;;7.75;3.90;;;26.20;79.40;;;;;;5029020;28;20053;-62
2023/08/11 08:46:54;;;;;;;6.35;3.70;;;26.10;79.10;;;;;;5038460;28;20045;-62
2023/08/11 08:49:26;;;;;;;8.80;4.03;;;26.10;79.40;;;;;;5043111;28;20053;-68
2023/08/11 08:51:52;;;;;;;6.45;3.88;;;26.20;79.50;;;;;;5007807;28;20384;-62
2023/08/11 08:54:18;;;;;;;8.93;4.22;;;26.10;79.10;;;;;;5012448;28;20046;-75
2023/08/11 08:56:44;;;;;;;7.53;4.28;;;26.20;79.00;;;;;;5043940;28;20061;-70
2023/08/11 08:59:10;;;;;;;8.63;4.32;;;26.30;78.80;;;;;;5011176;28;20515;-69
2023/08/11 09:01:36;;;;;;;9.48;4.80;;;25.90;78.10;;;;;;5059299;28;20072;-69
2023/08/11 09:04:02;;;;;;;7.60;4.28;;;26.20;78.30;;;;;;5030837;28;20689;-73
2023/08/11 09:06:27;;;;;;;9.68;4.50;;;26.40;78.20;;;;;;5028299;28;20049;-69
2023/08/11 09:08:53;;;;;;;6.38;3.97;;;26.20;78.20;;;;;;5022168;28;20092;-69
2023/08/11 09:11:20;;;;;;;9.27;4.07;;;26.00;77.80;;;;;;5034581;28;20463;-67
2023/08/11 09:13:46;;;;;;;7.90;4.05;;;26.20;78.30;;;;;;5030842;28;20057;-74
2023/08/11 09:16:15;;;;;;;7.40;3.95;;;26.20;78.30;;;;;;5033805;28;20359;-70
2023/08/11 09:18:42;;;;;;;6.95;4.10;;;26.30;78.50;;;;;;5047033;28;20046;-67
2023/08/11 09:21:08;;;;;;;9.38;4.40;;;26.30;78.50;;;;;;5046991;28;20069;-65
2023/08/11 09:23:34;;;;;;;6.57;4.05;;;26.40;78.20;;;;;;5025347;28;20038;-63
2023/08/11 09:26:01;;;;;;;6.82;4.10;;;26.40;78.20;;;;;;5048914;28;20046;-66
2023/08/11 09:28:27;;;;;;;8.70;4.10;;;26.40;78.30;;;;;;5027802;28;20514;-65
2023/08/11 09:30:53;;;;;;;7.80;4.60;;;26.30;78.00;;;;;;5032216;28;20598;-60
2023/08/11 09:33:21;;;;;;;7.57;3.95;;;26.20;78.10;;;;;;5032576;28;20089;-70
2023/08/11 09:35:48;;;;;;;8.77;3.90;;;26.30;78.20;;;;;;5028810;28;20038;-68
2023/08/11 09:38:13;;;;;;;7.85;4.45;;;26.30;78.00;;;;;;5013824;28;20061;-69
2023/08/11 09:40:41;;;;;;;9.85;5.10;;;26.50;78.00;;;;;;5027969;28;20493;-66
2023/08/11 09:43:07;;;;;;;9.27;4.60;;;26.70;77.90;;;;;;5014726;28;20057;-64
2023/08/11 09:45:33;;;;;;;10.18;4.38;;;26.40;77.50;;;;;;5058300;28;20041;-62
2023/08/11 09:47:59;;;;;;;8.07;4.78;;;26.40;77.50;;;;;;5030422;28;20050;-65
2023/08/11 09:50:26;;;;;;;6.95;4.72;;;26.60;77.60;;;;;;5046797;28;20139;-67
2023/08/11 09:52:52;;;;;;;9.20;4.80;;;26.60;77.60;;;;;;5034059;28;20057;-69
2023/08/11 09:55:18;;;;;;;9.75;5.57;;;26.70;77.30;;;;;;5030685;28;20121;-65
2023/08/11 09:57:44;;;;;;;7.95;4.97;;;26.70;77.10;;;;;;5029294;28;20077;-64
2023/08/11 10:00:13;;;;;;;8.77;4.80;;;26.60;77.00;;;;;;5018655;28;20096;-64
2023/08/11 10:02:55;;;;;;;9.00;5.28;;;26.60;76.20;;;;;;5013352;28;20050;-65
2023/08/11 10:05:20;;;;;;;10.90;5.03;;;26.60;75.70;;;;;;5018331;28;20059;-64
2023/08/11 10:07:47;;;;;;;9.55;4.82;;;26.80;77.00;;;;;;5030933;28;20136;-65
2023/08/11 10:10:14;;;;;;;7.50;4.80;;;26.80;76.70;;;;;;5016174;28;20135;-65
2023/08/11 10:12:47;;;;;;;7.57;4.47;;;27.10;77.30;;;;;;5021668;28;20081;-70
2023/08/11 10:15:13;;;;;;;8.48;4.50;;;26.80;77.20;;;;;;5047903;28;20056;-66
2023/08/11 10:17:39;;;;;;;10.80;4.80;;;26.70;76.90;;;;;;5014174;28;20458;-68
2023/08/11 10:20:07;;;;;;;8.15;5.40;;;26.90;76.90;;;;;;5016974;28;20076;-65
2023/08/11 10:22:33;;;;;;;9.15;4.28;;;26.90;76.70;;;;;;5013735;28;20041;-65
2023/08/11 10:25:01;;;;;;;6.70;4.40;;;27.20;76.80;;;;;;5023601;28;20046;-65
2023/08/11 10:27:27;;;;;;;19.58;5.35;;;26.70;76.50;;;;;;5006993;28;20095;-65
2023/08/11 10:29:53;;;;;;;12.18;5.00;;;26.80;76.80;;;;;;5025184;28;20052;-63
2023/08/11 10:32:25;;;;;;;8.23;4.80;;;26.80;76.70;;;;;;5028242;28;20442;-68
2023/08/11 10:34:51;;;;;;;10.05;4.63;;;26.70;75.20;;;;;;5028870;28;20052;-65
2023/08/11 10:37:17;;;;;;;7.30;4.47;;;27.00;76.80;;;;;;5028942;28;20487;-65
2023/08/11 10:39:43;;;;;;;8.68;4.38;;;26.70;76.80;;;;;;5028132;28;20471;-60
2023/08/11 10:42:12;;;;;;;9.25;4.50;;;26.70;76.80;;;;;;5033766;28;20056;-60
2023/08/11 10:44:42;;;;;;;9.80;4.43;;;26.80;77.40;;;;;;5040539;28;20046;-68
2023/08/11 10:47:08;;;;;;;8.30;4.00;;;26.90;77.30;;;;;;5027623;28;20050;-60
2023/08/11 10:49:34;;;;;;;10.48;5.13;;;26.70;77.00;;;;;;5027214;28;20037;-61
2023/08/11 10:52:01;;;;;;;8.05;4.25;;;26.90;77.10;;;;;;5031730;28;20072;-64
2023/08/11 10:54:27;;;;;;;8.10;4.28;;;26.90;77.80;;;;;;5032774;28;20041;-61
2023/08/11 10:56:53;;;;;;;9.27;4.30;;;26.90;76.80;;;;;;5029714;28;20049;-61
2023/08/11 10:59:25;;;;;;;8.18;4.53;;;27.00;77.10;;;;;;5029254;28;20759;-64
2023/08/11 11:01:52;;;;;;;10.73;4.50;;;27.00;77.40;;;;;;5033386;28;20050;-61
2023/08/11 11:04:19;;;;;;;6.47;4.18;;;26.90;77.00;;;;;;5027182;28;20045;-61
2023/08/11 11:06:45;;;;;;;8.15;3.85;;;27.20;77.40;;;;;;5032115;28;20524;-63
2023/08/11 11:09:11;;;;;;;7.00;3.90;;;26.90;77.00;;;;;;5028063;28;20061;-62
2023/08/11 11:11:37;;;;;;;6.18;3.40;;;26.80;77.10;;;;;;5032481;28;20395;-64
2023/08/11 11:14:07;;;;;;;8.00;4.03;;;27.00;76.80;;;;;;5031004;28;20039;-62
2023/08/11 11:16:33;;;;;;;14.52;4.25;;;26.90;77.30;;;;;;5030523;28;20128;-63
2023/08/11 11:19:00;;;;;;;10.07;4.45;;;26.80;76.70;;;;;;5032215;28;20148;-66
2023/08/11 11:21:26;;;;;;;10.27;4.10;;;26.90;77.00;;;;;;5019043;28;20037;-68
2023/08/11 11:23:52;;;;;;;7.47;3.90;;;27.00;76.70;;;;;;5027485;28;20045;-68
2023/08/11 11:26:25;;;;;;;5.78;3.55;;;27.00;76.40;;;;;;5025703;28;20041;-72
2023/08/11 11:28:52;;;;;;;22.23;5.05;;;27.00;76.80;;;;;;5013047;28;20406;-71
2023/08/11 11:31:18;;;;;;;10.68;4.00;;;27.20;76.50;;;;;;5009150;28;20046;-74
2023/08/11 11:33:44;;;;;;;7.75;4.28;;;27.30;76.80;;;;;;5030890;28;20068;-77
2023/08/11 11:36:12;;;;;;;7.93;3.60;;;27.10;76.10;;;;;;5010462;28;20049;-71
2023/08/11 11:38:38;;;;;;;8.02;3.47;;;27.10;76.30;;;;;;5048670;28;20091;-79
2023/08/11 11:41:04;;;;;;;9.18;4.00;;;27.10;76.30;;;;;;5060750;28;20049;-66
2023/08/11 11:43:29;;;;;;;8.00;3.47;;;27.20;76.20;;;;;;5063791;28;20045;-73
2023/08/11 11:45:56;;;;;;;9.13;3.90;;;27.00;76.00;;;;;;5011612;28;20050;-77
2023/08/11 11:48:23;;;;;;;6.95;3.47;;;27.10;76.20;;;;;;5023645;28;20381;-68
2023/08/11 11:50:49;;;;;;;9.15;3.47;;;27.00;76.10;;;;;;5013222;28;20115;-71
2023/08/11 11:53:15;;;;;;;9.75;3.80;;;27.20;76.40;;;;;;5029612;28;20057;-60
2023/08/11 11:55:46;;;;;;;7.03;3.40;;;27.30;76.20;;;;;;5023279;28;20388;-77
2023/08/11 11:58:17;;;;;;;14.88;3.55;;;27.50;76.50;;;;;;5031003;28;20518;-69
2023/08/11 12:00:46;;;;;;;7.57;3.45;;;27.30;74.70;;;;;;5033176;28;20450;-67
2023/08/11 12:03:12;;;;;;;8.20;3.65;;;27.20;75.80;;;;;;5014263;28;20053;-73
2023/08/11 12:05:38;;;;;;;6.55;3.47;;;27.30;75.60;;;;;;5032322;28;20064;-75
2023/08/11 12:08:23;;;;;;;6.68;3.50;;;27.20;75.50;;;;;;5027976;28;20446;-69
2023/08/11 12:10:49;;;;;;;13.75;3.95;;;27.50;76.30;;;;;;5016337;28;20489;-65
2023/08/11 12:13:15;;;;;;;18.67;4.05;;;27.30;75.50;;;;;;5036254;28;20044;-74
2023/08/11 12:15:40;;;;;;;14.95;3.85;;;27.40;75.30;;;;;;5035685;28;20037;-67
2023/08/11 12:18:06;;;;;;;8.18;3.42;;;27.50;76.10;;;;;;5029338;28;20045;-69
2023/08/11 12:20:35;;;;;;;7.25;3.70;;;27.50;74.60;;;;;;5034281;28;20053;-67
2023/08/11 12:23:01;;;;;;;8.60;3.75;;;27.40;75.60;;;;;;5036292;28;20507;-61
2023/08/11 12:25:26;;;;;;;9.55;3.55;;;27.70;75.40;;;;;;5035520;28;20049;-72
2023/08/11 12:27:55;;;;;;;6.55;3.30;;;27.70;75.10;;;;;;5030905;28;20140;-78
2023/08/11 12:30:21;;;;;;;5.93;3.20;;;27.80;75.30;;;;;;5027116;28;20048;-68
2023/08/11 12:32:47;;;;;;;7.28;3.30;;;27.60;74.90;;;;;;5032191;28;20049;-64
2023/08/11 12:35:14;;;;;;;8.65;3.22;;;27.60;74.80;;;;;;5033007;28;20124;-73
2023/08/11 12:37:40;;;;;;;9.65;3.40;;;27.70;74.50;;;;;;5032854;28;20048;-78
2023/08/11 12:40:09;;;;;;;6.72;3.70;;;28.00;75.10;;;;;;5034993;28;20399;-67
2023/08/11 12:42:37;;;;;;;5.45;3.35;;;27.60;74.50;;;;;;5032455;28;20091;-69
2023/08/11 12:45:04;;;;;;;6.05;3.20;;;27.80;75.00;;;;;;5034825;28;20731;-75